Time;durP1;ratioP1;P1;durP2;ratioP2;P2;SDS_P1;SDS_P2;PMS_P1;PMS_P2;Temp;Humidity;BMP_temperature;BMP_pressure;BME280_temperature;BME280_humidity;BME280_pressure;Samples;Min_cycle;Max_cycle;Signal;HPM_P1;HPM_P2
2023/10/15 00:00:13;;;;;;;15.88;7.18;;;;;;;;;;5016028;28;20026;-63
2023/10/15 00:02:40;;;;;;;22.13;8.18;;;;;;;;;;5011463;28;20033;-62
2023/10/15 00:05:06;;;;;;;20.08;7.40;;;;;;;;;;5032381;28;20136;-63
2023/10/15 00:07:32;;;;;;;20.00;7.15;;;;;;;;;;5038673;28;20037;-62
2023/10/15 00:09:59;;;;;;;17.75;7.82;;;;;;;;;;5037437;28;20036;-62
2023/10/15 00:12:25;;;;;;;20.90;7.97;;;;;;;;;;5030785;28;20394;-62
2023/10/15 00:14:52;;;;;;;16.35;7.13;;;;;;;;;;5018186;28;20049;-62
2023/10/15 00:17:18;;;;;;;18.48;8.02;;;;;;;;;;5022103;28;20069;-62
2023/10/15 00:19:44;;;;;;;16.35;6.50;;;;;;;;;;5038099;28;20123;-62
2023/10/15 00:22:10;;;;;;;19.80;6.80;;;;;;;;;;5038970;28;20137;-63
2023/10/15 00:24:37;;;;;;;15.35;6.70;;;;;;;;;;5038749;28;20095;-63
2023/10/15 00:27:04;;;;;;;17.65;6.57;;;;;;;;;;5037921;28;20025;-62
2023/10/15 00:29:30;;;;;;;18.20;6.90;;;;;;;;;;5037674;28;20029;-62
2023/10/15 00:31:56;;;;;;;19.63;6.97;;;;;;;;;;5035227;28;20030;-63
2023/10/15 00:34:22;;;;;;;21.20;8.48;;;;;;;;;;5036231;28;20018;-61
2023/10/15 00:36:48;;;;;;;15.90;7.13;;;;;;;;;;5037405;28;20022;-62
2023/10/15 00:39:21;;;;;;;19.63;6.88;;;;;;;;;;5036947;28;20097;-62
2023/10/15 00:41:47;;;;;;;21.70;8.02;;;;;;;;;;5037773;28;20021;-62
2023/10/15 00:44:14;;;;;;;19.35;7.85;;;;;;;;;;5039640;28;20105;-64
2023/10/15 00:46:41;;;;;;;22.60;8.18;;;;;;;;;;5039103;28;20021;-63
2023/10/15 00:49:17;;;;;;;20.95;7.95;;;;;;;;;;5022595;28;20041;-64
2023/10/15 00:51:45;;;;;;;17.85;7.95;;;;;;;;;;5022186;28;20029;-61
2023/10/15 00:54:15;;;;;;;17.75;7.35;;;;;;;;;;5038279;28;20022;-63
2023/10/15 00:56:44;;;;;;;20.58;7.75;;;;;;;;;;5040407;28;20041;-62
2023/10/15 01:02:03;;;;;;;;;;;;;;;;;;;;;
2023/10/15 01:04:24;;;;;;;18.85;7.57;;;;;;;;;;5043146;28;20053;-63
2023/10/15 01:06:51;;;;;;;17.52;7.85;;;;;;;;;;5042946;28;20077;-61
2023/10/15 01:09:27;;;;;;;24.23;7.90;;;;;;;;;;5041656;28;20021;-62
2023/10/15 01:11:55;;;;;;;17.15;7.93;;;;;;;;;;5041511;28;20084;-64
2023/10/15 01:14:44;;;;;;;18.30;7.10;;;;;;;;;;5029198;28;20024;-61
2023/10/15 01:17:08;;;;;;;17.88;6.70;;;;;;;;;;5026569;28;20037;-63
2023/10/15 01:19:35;;;;;;;18.67;7.65;;;;;;;;;;5020825;28;20203;-62
2023/10/15 01:22:02;;;;;;;20.63;8.45;;;;;;;;;;5021463;28;20026;-63
2023/10/15 01:24:28;;;;;;;13.75;6.93;;;;;;;;;;5021774;28;20116;-63
2023/10/15 01:27:05;;;;;;;16.25;7.30;;;;;;;;;;5021189;28;20429;-63
2023/10/15 01:29:33;;;;;;;16.35;7.30;;;;;;;;;;5022597;28;20088;-63
2023/10/15 01:32:01;;;;;;;15.60;7.95;;;;;;;;;;5023807;28;20033;-62
2023/10/15 01:34:27;;;;;;;15.52;8.40;;;;;;;;;;5030601;28;20108;-62
2023/10/15 01:36:59;;;;;;;16.10;11.70;;;;;;;;;;5042717;28;20130;-62
2023/10/15 01:39:38;;;;;;;18.63;14.45;;;;;;;;;;5039113;28;20109;-62
2023/10/15 01:42:06;;;;;;;16.90;12.73;;;;;;;;;;5040916;28;20021;-62
2023/10/15 01:44:32;;;;;;;19.35;16.20;;;;;;;;;;5041948;28;20037;-62
2023/10/15 01:49:34;;;;;;;19.67;16.40;;;;;;;;;;5031578;28;20029;-62
2023/10/15 01:52:09;;;;;;;19.00;17.08;;;;;;;;;;5022592;28;20030;-63
2023/10/15 01:54:36;;;;;;;21.15;18.50;;;;;;;;;;5018776;28;20022;-63
2023/10/15 01:57:06;;;;;;;21.05;19.05;;;;;;;;;;5038614;28;20033;-61
2023/10/15 01:59:41;;;;;;;22.20;20.10;;;;;;;;;;5040464;28;20085;-62
2023/10/15 02:02:08;;;;;;;22.83;20.73;;;;;;;;;;5038780;28;20075;-62
2023/10/15 02:04:42;;;;;;;22.53;20.43;;;;;;;;;;5043825;28;20029;-62
2023/10/15 02:07:12;;;;;;;22.08;19.90;;;;;;;;;;5042278;28;20029;-62
2023/10/15 02:09:39;;;;;;;22.17;20.08;;;;;;;;;;5043242;28;20021;-62
2023/10/15 02:12:07;;;;;;;22.35;20.17;;;;;;;;;;5042870;28;20176;-62
2023/10/15 02:14:34;;;;;;;21.95;19.75;;;;;;;;;;5043214;28;20068;-63
2023/10/15 02:17:03;;;;;;;21.75;19.65;;;;;;;;;;5042663;28;20028;-62
2023/10/15 02:19:34;;;;;;;22.63;20.35;;;;;;;;;;5041841;28;20021;-63
2023/10/15 02:22:07;;;;;;;22.00;19.65;;;;;;;;;;5031670;28;20100;-61
2023/10/15 02:24:34;;;;;;;21.58;19.42;;;;;;;;;;5033558;28;20029;-63
2023/10/15 02:27:08;;;;;;;20.95;18.90;;;;;;;;;;5040689;28;20482;-62
2023/10/15 02:29:35;;;;;;;20.95;18.95;;;;;;;;;;5041274;28;20438;-62
2023/10/15 02:34:46;;;;;;;21.48;19.17;;;;;;;;;;5021672;28;20403;-63
2023/10/15 02:37:17;;;;;;;20.80;18.70;;;;;;;;;;5022384;28;20045;-62
2023/10/15 02:39:52;;;;;;;21.10;19.00;;;;;;;;;;5019841;28;20018;-60
2023/10/15 02:42:19;;;;;;;20.10;18.10;;;;;;;;;;5020943;28;20070;-62
2023/10/15 02:44:50;;;;;;;22.98;17.95;;;;;;;;;;5031569;28;20021;-62
2023/10/15 02:47:19;;;;;;;20.05;18.02;;;;;;;;;;5041993;28;20029;-60
2023/10/15 02:49:59;;;;;;;19.90;17.90;;;;;;;;;;5042393;28;20037;-63
2023/10/15 02:52:26;;;;;;;20.35;18.35;;;;;;;;;;5042287;28;20032;-62
2023/10/15 02:54:52;;;;;;;20.52;18.50;;;;;;;;;;5041288;28;20033;-62
2023/10/15 02:57:18;;;;;;;21.10;18.92;;;;;;;;;;5041749;28;20017;-62
2023/10/15 02:59:50;;;;;;;20.85;18.73;;;;;;;;;;5042341;28;20342;-62
2023/10/15 03:02:20;;;;;;;20.58;18.48;;;;;;;;;;5040646;28;20087;-63
2023/10/15 03:04:51;;;;;;;20.75;18.60;;;;;;;;;;5042246;28;20021;-63
2023/10/15 03:07:19;;;;;;;20.80;18.67;;;;;;;;;;5042093;28;20037;-63
2023/10/15 03:09:56;;;;;;;20.50;18.33;;;;;;;;;;5040229;28;20025;-62
2023/10/15 03:12:22;;;;;;;21.67;19.40;;;;;;;;;;5041621;28;20021;-62
2023/10/15 03:14:48;;;;;;;20.63;18.48;;;;;;;;;;5041826;28;20024;-63
2023/10/15 03:17:23;;;;;;;20.80;18.73;;;;;;;;;;5039347;28;20052;-62
2023/10/15 03:19:49;;;;;;;19.60;17.65;;;;;;;;;;5040403;28;20029;-63
2023/10/15 03:22:15;;;;;;;20.13;17.95;;;;;;;;;;5038411;28;20037;-58
2023/10/15 03:24:44;;;;;;;20.27;18.17;;;;;;;;;;5034025;28;20140;-63
2023/10/15 03:27:16;;;;;;;;;;;;;;;;;;5039984;28;20037;-62
2023/10/15 03:29:42;;;;;;;21.33;18.60;;;;;;;;;;5026035;28;19940;-62
2023/10/15 03:32:12;;;;;;;22.00;19.70;;;;;;;;;;5037091;28;20029;-62
2023/10/15 03:34:48;;;;;;;20.20;18.20;;;;;;;;;;5032238;28;20018;-62
2023/10/15 03:37:16;;;;;;;19.67;17.67;;;;;;;;;;5020121;28;20022;-64
2023/10/15 03:44:44;;;;;;;20.13;18.13;;;;;;;;;;5038899;28;20021;-62
2023/10/15 03:47:11;;;;;;;19.30;17.40;;;;;;;;;;5038079;28;20104;-61
2023/10/15 03:49:37;;;;;;;22.05;18.30;;;;;;;;;;5038709;28;20073;-62
2023/10/15 03:52:14;;;;;;;19.70;17.60;;;;;;;;;;5038800;28;20375;-62
2023/10/15 03:54:40;;;;;;;22.58;18.10;;;;;;;;;;5040385;28;20093;-62
2023/10/15 03:57:06;;;;;;;20.90;18.48;;;;;;;;;;5030755;28;20022;-62
2023/10/15 03:59:42;;;;;;;19.10;17.13;;;;;;;;;;5038741;28;20013;-59
2023/10/15 04:02:11;;;;;;;20.55;17.50;;;;;;;;;;5038719;28;20120;-62
2023/10/15 04:04:38;;;;;;;21.85;17.90;;;;;;;;;;5030929;28;20025;-62
2023/10/15 04:07:19;;;;;;;19.20;17.20;;;;;;;;;;5040025;28;20087;-62
2023/10/15 04:09:44;;;;;;;20.30;18.13;;;;;;;;;;5037229;28;20140;-59
2023/10/15 04:12:10;;;;;;;21.38;17.15;;;;;;;;;;5037769;28;20426;-62
2023/10/15 04:14:37;;;;;;;18.90;16.98;;;;;;;;;;5038331;28;20032;-62
2023/10/15 04:17:06;;;;;;;19.30;17.17;;;;;;;;;;5038247;28;20017;-61
2023/10/15 04:19:35;;;;;;;21.63;16.85;;;;;;;;;;5037061;28;20108;-62
2023/10/15 04:22:09;;;;;;;;;;;;;;;;;;5038237;28;20037;-63
2023/10/15 04:24:41;;;;;;;18.80;16.73;;;;;;;;;;5039533;28;19952;-63
2023/10/15 04:27:15;;;;;;;18.83;16.50;;;;;;;;;;5039476;28;20096;-63
2023/10/15 04:29:48;;;;;;;19.08;16.30;;;;;;;;;;5041250;28;20040;-64
2023/10/15 04:32:18;;;;;;;20.05;16.38;;;;;;;;;;5044164;28;20097;-63
2023/10/15 04:34:47;;;;;;;18.75;16.83;;;;;;;;;;5041796;28;20067;-63
2023/10/15 04:37:16;;;;;;;19.80;17.05;;;;;;;;;;5043301;28;20029;-63
2023/10/15 04:39:52;;;;;;;18.55;16.60;;;;;;;;;;5042627;28;20061;-63
2023/10/15 04:42:27;;;;;;;19.10;16.65;;;;;;;;;;5042478;28;20028;-63
2023/10/15 04:44:53;;;;;;;18.65;16.80;;;;;;;;;;5043043;28;20533;-62
2023/10/15 04:47:33;;;;;;;19.50;16.98;;;;;;;;;;5040986;28;20086;-63
2023/10/15 04:49:59;;;;;;;19.08;17.00;;;;;;;;;;5042561;28;20077;-63
2023/10/15 04:52:26;;;;;;;18.80;16.90;;;;;;;;;;5033813;28;20025;-62
2023/10/15 04:54:55;;;;;;;18.65;16.75;;;;;;;;;;5042370;28;20159;-63
2023/10/15 04:57:22;;;;;;;19.00;17.10;;;;;;;;;;5042125;28;20083;-63
2023/10/15 04:59:48;;;;;;;20.75;16.88;;;;;;;;;;5041941;28;20040;-62
2023/10/15 05:02:14;;;;;;;19.00;17.10;;;;;;;;;;5041793;28;20045;-62
2023/10/15 05:04:40;;;;;;;20.20;18.10;;;;;;;;;;5041219;28;20085;-63
2023/10/15 05:07:06;;;;;;;18.98;17.02;;;;;;;;;;5042287;28;20108;-62
2023/10/15 05:09:34;;;;;;;24.85;17.00;;;;;;;;;;5042389;28;20025;-62
2023/10/15 05:12:00;;;;;;;18.50;16.60;;;;;;;;;;5041522;28;20515;-63
2023/10/15 05:14:26;;;;;;;20.23;16.60;;;;;;;;;;5041553;28;20052;-62
2023/10/15 05:16:52;;;;;;;18.35;16.35;;;;;;;;;;5041222;28;20092;-63
2023/10/15 05:19:18;;;;;;;20.20;16.60;;;;;;;;;;5040448;28;20466;-63
2023/10/15 05:21:46;;;;;;;18.77;16.77;;;;;;;;;;5042415;28;20049;-63
2023/10/15 05:24:18;;;;;;;17.92;16.10;;;;;;;;;;5041819;28;20056;-63
2023/10/15 05:26:46;;;;;;;18.35;16.38;;;;;;;;;;5041712;28;20580;-62
2023/10/15 05:29:13;;;;;;;20.67;16.40;;;;;;;;;;5041804;28;20094;-62
2023/10/15 05:31:39;;;;;;;18.00;16.10;;;;;;;;;;5041434;28;20280;-62
2023/10/15 05:34:07;;;;;;;19.30;17.30;;;;;;;;;;5040474;28;20081;-63
2023/10/15 05:36:33;;;;;;;19.10;17.10;;;;;;;;;;5041612;28;20013;-62
2023/10/15 05:38:59;;;;;;;18.02;16.10;;;;;;;;;;5040917;28;20092;-63
2023/10/15 05:41:27;;;;;;;18.20;16.00;;;;;;;;;;5039818;28;20064;-63
2023/10/15 05:43:53;;;;;;;19.33;16.08;;;;;;;;;;5025900;28;20364;-62
2023/10/15 05:46:20;;;;;;;18.77;16.13;;;;;;;;;;5026059;28;20026;-62
2023/10/15 05:48:47;;;;;;;19.73;16.92;;;;;;;;;;5035803;28;20089;-62
2023/10/15 05:51:13;;;;;;;16.88;14.35;;;;;;;;;;5039673;28;20025;-61
2023/10/15 05:53:39;;;;;;;17.60;15.02;;;;;;;;;;5039253;28;20052;-62
2023/10/15 05:56:05;;;;;;;18.35;14.77;;;;;;;;;;5039693;28;20121;-62
2023/10/15 05:58:32;;;;;;;16.92;14.82;;;;;;;;;;5040484;28;20028;-62
2023/10/15 06:00:58;;;;;;;17.50;15.35;;;;;;;;;;5040019;28;20029;-62
2023/10/15 06:03:24;;;;;;;20.30;15.25;;;;;;;;;;5040486;28;20097;-62
2023/10/15 06:05:50;;;;;;;20.58;15.35;;;;;;;;;;5038603;28;20017;-63
2023/10/15 06:08:16;;;;;;;20.25;15.35;;;;;;;;;;5040344;28;20048;-61
2023/10/15 06:10:42;;;;;;;21.42;15.15;;;;;;;;;;5035472;28;20430;-62
2023/10/15 06:13:09;;;;;;;21.45;15.32;;;;;;;;;;5025327;28;20018;-62
2023/10/15 06:15:35;;;;;;;19.30;15.07;;;;;;;;;;5037423;28;20049;-63
2023/10/15 06:18:01;;;;;;;20.08;15.02;;;;;;;;;;5039424;28;20028;-62
2023/10/15 06:20:28;;;;;;;18.85;15.05;;;;;;;;;;5030229;28;20014;-62
2023/10/15 06:23:00;;;;;;;18.88;15.95;;;;;;;;;;5032791;28;20069;-62
2023/10/15 06:25:26;;;;;;;25.05;17.05;;;;;;;;;;5039430;28;20104;-62
2023/10/15 06:27:52;;;;;;;19.38;16.48;;;;;;;;;;5036984;28;20113;-62
2023/10/15 06:30:19;;;;;;;19.17;16.08;;;;;;;;;;5037227;28;20159;-62
2023/10/15 06:32:47;;;;;;;22.17;16.05;;;;;;;;;;5037388;28;20032;-62
2023/10/15 06:35:18;;;;;;;21.27;15.63;;;;;;;;;;5039726;28;20017;-62
2023/10/15 06:37:44;;;;;;;20.65;16.25;;;;;;;;;;5040266;28;20074;-63
2023/10/15 06:40:10;;;;;;;18.70;16.10;;;;;;;;;;5039518;28;20033;-62
2023/10/15 06:42:36;;;;;;;19.63;15.95;;;;;;;;;;5038911;28;20065;-61
2023/10/15 06:45:02;;;;;;;22.58;16.42;;;;;;;;;;5035325;28;20049;-61
2023/10/15 06:47:31;;;;;;;21.98;16.83;;;;;;;;;;5039440;28;20048;-62
2023/10/15 06:49:57;;;;;;;17.35;15.23;;;;;;;;;;5039303;28;20078;-62
2023/10/15 06:52:23;;;;;;;18.77;15.65;;;;;;;;;;5037709;28;20018;-64
2023/10/15 06:54:49;;;;;;;18.15;15.50;;;;;;;;;;5039422;28;20100;-63
2023/10/15 06:57:18;;;;;;;21.52;15.57;;;;;;;;;;5039116;28;20049;-63
2023/10/15 06:59:44;;;;;;;19.00;16.02;;;;;;;;;;5038649;28;20021;-63
2023/10/15 07:02:13;;;;;;;17.70;15.80;;;;;;;;;;5038894;28;20088;-63
2023/10/15 07:04:39;;;;;;;;;;;;;;;;;;5037905;28;20087;-63
2023/10/15 07:07:05;;;;;;;17.77;15.43;;;;;;;;;;5038854;28;19905;-62
2023/10/15 07:09:32;;;;;;;16.55;14.48;;;;;;;;;;5039200;28;20025;-63
2023/10/15 07:11:59;;;;;;;17.05;14.77;;;;;;;;;;5038542;28;20048;-63
2023/10/15 07:14:25;;;;;;;17.00;14.77;;;;;;;;;;5036243;28;20028;-61
2023/10/15 07:16:51;;;;;;;18.30;14.98;;;;;;;;;;5021975;28;20032;-56
2023/10/15 07:19:17;;;;;;;16.10;14.05;;;;;;;;;;5029637;28;20017;-56
2023/10/15 07:21:43;;;;;;;17.98;13.95;;;;;;;;;;5029910;28;20114;-52
2023/10/15 07:24:11;;;;;;;19.67;13.90;;;;;;;;;;5028358;28;20073;-49
2023/10/15 07:26:40;;;;;;;17.90;13.98;;;;;;;;;;5029840;28;20014;-52
2023/10/15 07:29:06;;;;;;;17.02;13.40;;;;;;;;;;5020619;28;20120;-54
2023/10/15 07:31:32;;;;;;;16.58;13.38;;;;;;;;;;5021064;28;20017;-61
2023/10/15 07:34:01;;;;;;;18.63;14.27;;;;;;;;;;5022046;28;20029;-60
2023/10/15 07:36:28;;;;;;;16.90;13.05;;;;;;;;;;5013548;28;20072;-59
2023/10/15 07:38:57;;;;;;;18.85;14.40;;;;;;;;;;5029451;28;20120;-60
2023/10/15 07:41:23;;;;;;;17.80;12.73;;;;;;;;;;5028118;28;20032;-58
2023/10/15 07:43:49;;;;;;;18.30;13.10;;;;;;;;;;5023363;28;20038;-55
2023/10/15 07:46:15;;;;;;;16.70;12.68;;;;;;;;;;5004640;28;20078;-57
2023/10/15 07:48:42;;;;;;;16.65;13.32;;;;;;;;;;5026326;28;20387;-59
2023/10/15 07:51:08;;;;;;;16.27;12.40;;;;;;;;;;5028020;28;20491;-58
2023/10/15 07:53:35;;;;;;;17.13;12.10;;;;;;;;;;5027886;28;20045;-57
2023/10/15 07:56:01;;;;;;;15.55;11.40;;;;;;;;;;5019984;28;20022;-57
2023/10/15 07:58:27;;;;;;;17.80;11.35;;;;;;;;;;5027890;28;20018;-58
2023/10/15 08:00:53;;;;;;;16.95;12.15;;;;;;;;;;5029138;28;20034;-59
2023/10/15 08:03:19;;;;;;;15.27;7.75;;;;;;;;;;5014693;28;20067;-58
2023/10/15 08:05:46;;;;;;;14.90;8.43;;;;;;;;;;5009365;28;20452;-58
2023/10/15 08:08:12;;;;;;;14.23;7.82;;;;;;;;;;5009650;28;20395;-58
2023/10/15 08:10:38;;;;;;;17.08;8.18;;;;;;;;;;5009431;28;20104;-58
2023/10/15 08:13:05;;;;;;;13.73;7.70;;;;;;;;;;5005622;28;20030;-55
2023/10/15 08:15:33;;;;;;;13.73;7.60;;;;;;;;;;5034066;28;20292;-58
2023/10/15 08:18:01;;;;;;;14.57;7.82;;;;;;;;;;5032902;28;20021;-56
2023/10/15 08:20:28;;;;;;;13.90;7.83;;;;;;;;;;5033553;28;20111;-60
2023/10/15 08:22:54;;;;;;;13.25;7.43;;;;;;;;;;5031641;28;20441;-54
2023/10/15 08:25:23;;;;;;;14.07;7.05;;;;;;;;;;5027699;28;20049;-58
2023/10/15 08:27:50;;;;;;;13.52;7.72;;;;;;;;;;5027760;28;20018;-57
2023/10/15 08:30:17;;;;;;;15.00;7.45;;;;;;;;;;5027406;28;20533;-54
2023/10/15 08:32:46;;;;;;;14.95;7.30;;;;;;;;;;5029156;28;20465;-58
2023/10/15 08:35:16;;;;;;;12.77;6.80;;;;;;;;;;5028799;28;20025;-55
2023/10/15 08:37:42;;;;;;;14.73;7.80;;;;;;;;;;5029053;28;20080;-58
2023/10/15 08:40:15;;;;;;;16.95;7.93;;;;;;;;;;5028749;28;20109;-58
2023/10/15 08:42:50;;;;;;;13.57;7.75;;;;;;;;;;5029056;28;20100;-53
2023/10/15 08:45:21;;;;;;;16.05;7.55;;;;;;;;;;5029117;28;20053;-57
2023/10/15 08:47:48;;;;;;;13.60;7.10;;;;;;;;;;5029143;28;20148;-58
2023/10/15 08:50:16;;;;;;;13.25;7.10;;;;;;;;;;5028794;28;20464;-55
2023/10/15 08:52:43;;;;;;;13.55;7.55;;;;;;;;;;5028884;28;20068;-55
2023/10/15 08:55:09;;;;;;;14.38;7.95;;;;;;;;;;5028681;28;20071;-53
2023/10/15 08:57:36;;;;;;;14.40;7.95;;;;;;;;;;5028885;28;20022;-55
2023/10/15 09:00:04;;;;;;;13.07;7.10;;;;;;;;;;5028773;28;20468;-59
2023/10/15 09:02:31;;;;;;;15.93;7.68;;;;;;;;;;5027635;28;20107;-58
2023/10/15 09:04:57;;;;;;;13.13;7.40;;;;;;;;;;5028816;28;20413;-56
2023/10/15 09:07:23;;;;;;;15.63;7.70;;;;;;;;;;5028848;28;20025;-56
2023/10/15 09:09:49;;;;;;;13.55;7.30;;;;;;;;;;5028705;28;20057;-55
2023/10/15 09:12:15;;;;;;;15.20;7.50;;;;;;;;;;5027442;28;20116;-50
2023/10/15 09:14:42;;;;;;;12.93;7.10;;;;;;;;;;5029035;28;20029;-58
2023/10/15 09:17:10;;;;;;;13.30;7.20;;;;;;;;;;5032662;28;20026;-57
2023/10/15 09:19:40;;;;;;;13.00;7.18;;;;;;;;;;5030865;28;20021;-59
2023/10/15 09:22:06;;;;;;;12.35;7.07;;;;;;;;;;5032428;28;20064;-53
2023/10/15 09:24:33;;;;;;;12.70;7.15;;;;;;;;;;5032475;28;20026;-56
2023/10/15 09:26:58;;;;;;;13.18;7.20;;;;;;;;;;5032629;28;20018;-58
2023/10/15 09:29:25;;;;;;;13.13;7.45;;;;;;;;;;5031843;28;20167;-58
2023/10/15 09:31:56;;;;;;;13.65;7.30;;;;;;;;;;5032111;28;20496;-60
2023/10/15 09:34:23;;;;;;;14.23;7.47;;;;;;;;;;5032412;28;20044;-59
2023/10/15 09:36:49;;;;;;;13.43;7.85;;;;;;;;;;5030918;28;20051;-61
2023/10/15 09:39:16;;;;;;;15.73;7.45;;;;;;;;;;5031783;28;20022;-58
2023/10/15 09:41:42;;;;;;;13.60;7.25;;;;;;;;;;5031800;28;20037;-56
2023/10/15 09:44:14;;;;;;;14.02;7.72;;;;;;;;;;5032175;28;20399;-56
2023/10/15 09:46:42;;;;;;;13.02;7.00;;;;;;;;;;5031949;28;20037;-59
2023/10/15 09:49:10;;;;;;;14.45;7.38;;;;;;;;;;5031589;28;20025;-57
2023/10/15 09:51:36;;;;;;;13.52;7.35;;;;;;;;;;5031819;28;20025;-59
2023/10/15 09:54:02;;;;;;;14.02;7.15;;;;;;;;;;5032189;28;20486;-57
2023/10/15 09:56:29;;;;;;;13.48;7.00;;;;;;;;;;5032062;28;20033;-58
2023/10/15 09:58:55;;;;;;;12.45;6.88;;;;;;;;;;5031670;28;20033;-61
2023/10/15 10:01:28;;;;;;;16.67;7.20;;;;;;;;;;5033171;28;20029;-56
2023/10/15 10:04:14;;;;;;;13.82;7.35;;;;;;;;;;5030777;28;20061;-60
2023/10/15 10:06:43;;;;;;;14.45;7.30;;;;;;;;;;5031767;28;20554;-58
2023/10/15 10:09:25;;;;;;;12.73;7.15;;;;;;;;;;5031462;28;20064;-55
2023/10/15 10:11:54;;;;;;;14.55;7.13;;;;;;;;;;5031336;28;20028;-56
2023/10/15 10:14:38;;;;;;;17.42;9.73;;;;;;;;;;5031383;28;20056;-61
2023/10/15 10:17:06;;;;;;;15.32;7.60;;;;;;;;;;5031642;28;20029;-58
2023/10/15 10:19:32;;;;;;;13.45;7.35;;;;;;;;;;5031100;28;20210;-56
2023/10/15 10:21:58;;;;;;;13.75;6.95;;;;;;;;;;5031204;28;20061;-60
2023/10/15 10:24:24;;;;;;;15.88;6.93;;;;;;;;;;5031255;28;20487;-58
2023/10/15 10:26:54;;;;;;;17.48;8.23;;;;;;;;;;5031134;28;20487;-58
2023/10/15 10:29:20;;;;;;;16.73;7.80;;;;;;;;;;5030901;28;20044;-58
2023/10/15 10:31:47;;;;;;;13.55;7.32;;;;;;;;;;5029912;28;20124;-57
2023/10/15 10:34:14;;;;;;;13.57;7.10;;;;;;;;;;5031017;28;20053;-59
2023/10/15 10:36:41;;;;;;;14.55;7.80;;;;;;;;;;5031118;28;20048;-57
2023/10/15 10:39:18;;;;;;;13.43;7.38;;;;;;;;;;5029506;28;20032;-56
2023/10/15 10:41:45;;;;;;;14.85;8.73;;;;;;;;;;5029940;28;20024;-57
2023/10/15 10:44:23;;;;;;;15.00;7.47;;;;;;;;;;5031054;28;20029;-57
2023/10/15 10:46:52;;;;;;;13.25;7.72;;;;;;;;;;5031004;28;20103;-59
2023/10/15 10:49:27;;;;;;;15.85;7.80;;;;;;;;;;5030724;28;20021;-57
2023/10/15 10:52:12;;;;;;;16.33;9.18;;;;;;;;;;5030743;28;20037;-60
2023/10/15 10:54:38;;;;;;;13.80;8.10;;;;;;;;;;5030830;28;20471;-59
2023/10/15 10:57:07;;;;;;;14.05;8.25;;;;;;;;;;5030271;28;20025;-59
2023/10/15 10:59:33;;;;;;;13.40;7.50;;;;;;;;;;5030571;28;20044;-58
2023/10/15 11:02:00;;;;;;;15.30;7.97;;;;;;;;;;5030525;28;20080;-59
2023/10/15 11:04:26;;;;;;;14.85;8.50;;;;;;;;;;5030689;28;20420;-56
2023/10/15 11:06:52;;;;;;;15.05;8.30;;;;;;;;;;5046339;28;20029;-60
2023/10/15 11:09:22;;;;;;;15.02;8.65;;;;;;;;;;5050128;28;20426;-59
2023/10/15 11:11:57;;;;;;;14.35;7.90;;;;;;;;;;5034550;28;20403;-59
2023/10/15 11:14:24;;;;;;;14.35;8.40;;;;;;;;;;5044331;28;20029;-58
2023/10/15 11:16:51;;;;;;;14.65;8.30;;;;;;;;;;5049524;28;20021;-58
2023/10/15 11:19:17;;;;;;;15.15;8.57;;;;;;;;;;5041966;28;20033;-58
2023/10/15 11:21:43;;;;;;;13.73;8.00;;;;;;;;;;5043661;28;20058;-57
2023/10/15 11:24:09;;;;;;;14.20;8.50;;;;;;;;;;5050213;28;20378;-56
2023/10/15 11:26:41;;;;;;;15.10;9.57;;;;;;;;;;5050367;28;20021;-60
2023/10/15 11:29:08;;;;;;;14.15;8.85;;;;;;;;;;5041240;28;20102;-57
2023/10/15 11:31:34;;;;;;;14.57;8.40;;;;;;;;;;5043534;28;20021;-58
2023/10/15 11:34:01;;;;;;;14.05;8.50;;;;;;;;;;5043387;28;20030;-57
2023/10/15 11:36:28;;;;;;;15.05;8.60;;;;;;;;;;5034090;28;20358;-53
2023/10/15 11:38:54;;;;;;;14.63;8.60;;;;;;;;;;5023616;28;20055;-57
2023/10/15 11:41:21;;;;;;;15.55;8.73;;;;;;;;;;5033574;28;20024;-59
2023/10/15 11:43:49;;;;;;;16.35;9.23;;;;;;;;;;5032814;28;20052;-54
2023/10/15 11:46:19;;;;;;;13.60;8.00;;;;;;;;;;5033994;28;20029;-58
2023/10/15 11:48:45;;;;;;;14.95;8.18;;;;;;;;;;5031196;28;20017;-56
2023/10/15 11:51:11;;;;;;;15.45;8.75;;;;;;;;;;5034296;28;20032;-60
2023/10/15 11:53:41;;;;;;;13.55;8.00;;;;;;;;;;5034113;28;20109;-59
2023/10/15 11:56:16;;;;;;;14.82;8.50;;;;;;;;;;5026977;28;20087;-56
2023/10/15 11:58:45;;;;;;;16.80;9.32;;;;;;;;;;5029674;28;20017;-55
2023/10/15 12:01:14;;;;;;;16.02;8.25;;;;;;;;;;5029714;28;20091;-56
2023/10/15 12:03:41;;;;;;;14.10;8.80;;;;;;;;;;5029480;28;20025;-57
2023/10/15 12:06:07;;;;;;;14.40;8.52;;;;;;;;;;5030409;28;20378;-55
2023/10/15 12:08:33;;;;;;;13.90;8.43;;;;;;;;;;5034865;28;20025;-55
2023/10/15 12:11:00;;;;;;;15.65;9.02;;;;;;;;;;5031069;28;20037;-54
2023/10/15 12:13:26;;;;;;;15.90;9.68;;;;;;;;;;5035082;28;20029;-57
2023/10/15 12:15:52;;;;;;;15.10;8.85;;;;;;;;;;5035819;28;20018;-60
2023/10/15 12:18:18;;;;;;;14.07;8.95;;;;;;;;;;5027364;28;20026;-58
2023/10/15 12:20:44;;;;;;;15.30;9.00;;;;;;;;;;5030779;28;20125;-60
2023/10/15 12:23:10;;;;;;;15.32;8.88;;;;;;;;;;5034153;28;20080;-57
2023/10/15 12:25:38;;;;;;;13.98;8.50;;;;;;;;;;5049257;28;20473;-56
2023/10/15 12:28:05;;;;;;;14.05;8.75;;;;;;;;;;5049872;28;20036;-56
2023/10/15 12:30:32;;;;;;;15.35;8.80;;;;;;;;;;5036158;28;20029;-58
2023/10/15 12:32:58;;;;;;;15.75;9.40;;;;;;;;;;5042612;28;20036;-55
2023/10/15 12:35:25;;;;;;;15.27;9.60;;;;;;;;;;5048412;28;20028;-54
2023/10/15 12:37:58;;;;;;;15.40;9.25;;;;;;;;;;5040117;28;20029;-55
2023/10/15 12:40:30;;;;;;;15.45;9.30;;;;;;;;;;5029547;28;20041;-56
2023/10/15 12:42:56;;;;;;;15.07;10.13;;;;;;;;;;5030112;28;20108;-56
2023/10/15 12:45:22;;;;;;;18.55;10.23;;;;;;;;;;5029685;28;20065;-56
2023/10/15 12:47:48;;;;;;;14.90;9.50;;;;;;;;;;5029403;28;20124;-57
2023/10/15 12:50:14;;;;;;;14.98;9.70;;;;;;;;;;5031531;28;20120;-58
2023/10/15 12:52:47;;;;;;;14.68;9.20;;;;;;;;;;5028806;28;20079;-60
2023/10/15 12:55:19;;;;;;;13.90;9.10;;;;;;;;;;5040859;28;20022;-59
2023/10/15 12:57:46;;;;;;;14.60;9.65;;;;;;;;;;5053070;28;20017;-56
2023/10/15 13:00:21;;;;;;;14.77;9.75;;;;;;;;;;5034985;28;20029;-58
2023/10/15 13:02:50;;;;;;;15.30;9.25;;;;;;;;;;5047313;28;20407;-60
2023/10/15 13:05:19;;;;;;;13.98;9.35;;;;;;;;;;5050411;28;20021;-56
2023/10/15 13:07:45;;;;;;;14.60;9.55;;;;;;;;;;5045096;28;20544;-54
2023/10/15 13:10:13;;;;;;;14.90;9.23;;;;;;;;;;5042168;28;20104;-56
2023/10/15 13:12:42;;;;;;;21.13;9.98;;;;;;;;;;5053278;28;20021;-57
2023/10/15 13:15:09;;;;;;;14.98;9.52;;;;;;;;;;5050165;28;20112;-55
2023/10/15 13:17:35;;;;;;;14.63;9.60;;;;;;;;;;5053079;28;20017;-57
2023/10/15 13:20:11;;;;;;;14.82;9.85;;;;;;;;;;5052849;28;20021;-57
2023/10/15 13:22:38;;;;;;;15.43;9.38;;;;;;;;;;5047394;28;20672;-58
2023/10/15 13:25:04;;;;;;;15.73;9.25;;;;;;;;;;5049507;28;20056;-54
2023/10/15 13:27:30;;;;;;;14.95;9.02;;;;;;;;;;5049602;28;20078;-55
2023/10/15 13:29:57;;;;;;;14.60;9.30;;;;;;;;;;5047846;28;20037;-58
2023/10/15 13:32:23;;;;;;;16.25;9.32;;;;;;;;;;5048194;28;20022;-59
2023/10/15 13:34:49;;;;;;;15.48;9.30;;;;;;;;;;5033936;28;20017;-57
2023/10/15 13:37:15;;;;;;;26.77;11.07;;;;;;;;;;5032061;28;20073;-58
2023/10/15 13:39:41;;;;;;;15.43;9.45;;;;;;;;;;5033593;28;20080;-59
2023/10/15 13:42:08;;;;;;;18.58;11.30;;;;;;;;;;5029836;28;20077;-59
2023/10/15 13:44:34;;;;;;;24.63;13.80;;;;;;;;;;5031161;28;20029;-56
2023/10/15 13:47:01;;;;;;;19.80;12.63;;;;;;;;;;5032889;28;20040;-56
2023/10/15 13:49:27;;;;;;;15.10;10.18;;;;;;;;;;5030575;28;20022;-54
2023/10/15 13:51:53;;;;;;;15.65;10.00;;;;;;;;;;5033024;28;20029;-55
2023/10/15 13:54:19;;;;;;;14.48;10.20;;;;;;;;;;5033184;28;20396;-55
2023/10/15 13:56:45;;;;;;;16.85;10.70;;;;;;;;;;5033399;28;20022;-56
2023/10/15 13:59:15;;;;;;;16.38;10.30;;;;;;;;;;5032680;28;20535;-57
2023/10/15 14:01:44;;;;;;;14.50;10.10;;;;;;;;;;5029667;28;20029;-54
2023/10/15 14:04:14;;;;;;;14.23;9.80;;;;;;;;;;5044330;28;20383;-61
2023/10/15 14:06:40;;;;;;;14.50;9.88;;;;;;;;;;5051910;28;20017;-61
2023/10/15 14:09:09;;;;;;;15.25;11.27;;;;;;;;;;5046254;28;20040;-57
2023/10/15 14:11:37;;;;;;;15.25;11.38;;;;;;;;;;5041263;28;20013;-61
2023/10/15 14:14:04;;;;;;;15.68;10.85;;;;;;;;;;5049922;28;20025;-61
2023/10/15 14:16:30;;;;;;;14.85;11.30;;;;;;;;;;5051681;28;20024;-62
2023/10/15 14:18:56;;;;;;;16.48;12.43;;;;;;;;;;5050061;28;20020;-61
2023/10/15 14:21:22;;;;;;;15.38;12.57;;;;;;;;;;5034512;28;20474;-62
2023/10/15 14:23:48;;;;;;;14.80;11.65;;;;;;;;;;5032661;28;20025;-62
2023/10/15 14:26:16;;;;;;;17.98;11.50;;;;;;;;;;5033864;28;20093;-61
2023/10/15 14:28:42;;;;;;;15.18;11.43;;;;;;;;;;5032175;28;20511;-63
2023/10/15 14:31:08;;;;;;;14.65;10.52;;;;;;;;;;5040608;28;20079;-62
2023/10/15 14:33:34;;;;;;;15.02;10.75;;;;;;;;;;5049201;28;20145;-63
2023/10/15 14:36:02;;;;;;;14.48;10.00;;;;;;;;;;5032289;28;20175;-63
2023/10/15 14:38:29;;;;;;;15.50;10.20;;;;;;;;;;5050320;28;20017;-63
2023/10/15 14:40:56;;;;;;;15.25;9.60;;;;;;;;;;5038822;28;20522;-63
2023/10/15 14:43:22;;;;;;;14.70;9.23;;;;;;;;;;5030866;28;20056;-63